sensor_id;sensor_type;location;lat;lon;timestamp;P1;durP1;ratioP1;P2;durP2;ratioP2
23179;SDS011;11758;45.756;11.432;2022-07-21T00:01:18;4.40;;;4.10;;
23179;SDS011;11758;45.756;11.432;2022-07-21T00:03:44;6.63;;;4.70;;
23179;SDS011;11758;45.756;11.432;2022-07-21T00:06:11;5.82;;;4.50;;
23179;SDS011;11758;45.756;11.432;2022-07-21T00:08:37;5.38;;;4.88;;
23179;SDS011;11758;45.756;11.432;2022-07-21T00:11:03;5.00;;;4.55;;
23179;SDS011;11758;45.756;11.432;2022-07-21T00:13:29;5.38;;;4.88;;
23179;SDS011;11758;45.756;11.432;2022-07-21T00:15:55;5.45;;;4.30;;
23179;SDS011;11758;45.756;11.432;2022-07-21T00:18:22;4.75;;;4.28;;
23179;SDS011;11758;45.756;11.432;2022-07-21T00:20:49;5.07;;;4.60;;
23179;SDS011;11758;45.756;11.432;2022-07-21T00:23:15;5.50;;;4.50;;
23179;SDS011;11758;45.756;11.432;2022-07-21T00:25:41;8.25;;;4.57;;
23179;SDS011;11758;45.756;11.432;2022-07-21T00:28:07;5.78;;;4.32;;
23179;SDS011;11758;45.756;11.432;2022-07-21T00:30:33;7.60;;;4.88;;
23179;SDS011;11758;45.756;11.432;2022-07-21T00:33:00;5.18;;;4.68;;
23179;SDS011;11758;45.756;11.432;2022-07-21T00:35:26;9.23;;;4.70;;
23179;SDS011;11758;45.756;11.432;2022-07-21T00:37:53;5.60;;;4.57;;
23179;SDS011;11758;45.756;11.432;2022-07-21T00:40:19;7.97;;;4.57;;
23179;SDS011;11758;45.756;11.432;2022-07-21T00:42:45;6.20;;;4.53;;
23179;SDS011;11758;45.756;11.432;2022-07-21T00:45:11;4.78;;;4.40;;
23179;SDS011;11758;45.756;11.432;2022-07-21T00:47:37;6.82;;;4.72;;
23179;SDS011;11758;45.756;11.432;2022-07-21T00:50:06;8.82;;;4.63;;
23179;SDS011;11758;45.756;11.432;2022-07-21T00:52:32;7.85;;;4.70;;
23179;SDS011;11758;45.756;11.432;2022-07-21T00:54:58;5.47;;;4.50;;
23179;SDS011;11758;45.756;11.432;2022-07-21T00:57:25;6.05;;;4.82;;
23179;SDS011;11758;45.756;11.432;2022-07-21T00:59:51;9.45;;;4.63;;
23179;SDS011;11758;45.756;11.432;2022-07-21T01:02:17;8.15;;;4.78;;
23179;SDS011;11758;45.756;11.432;2022-07-21T01:04:43;5.28;;;4.72;;
23179;SDS011;11758;45.756;11.432;2022-07-21T01:07:09;8.90;;;5.05;;
23179;SDS011;11758;45.756;11.432;2022-07-21T01:09:36;5.32;;;4.82;;
23179;SDS011;11758;45.756;11.432;2022-07-21T01:12:02;5.57;;;4.63;;
23179;SDS011;11758;45.756;11.432;2022-07-21T01:14:29;10.55;;;4.63;;
23179;SDS011;11758;45.756;11.432;2022-07-21T01:16:55;8.73;;;4.53;;
23179;SDS011;11758;45.756;11.432;2022-07-21T01:19:21;7.15;;;4.78;;
23179;SDS011;11758;45.756;11.432;2022-07-21T01:21:47;5.40;;;4.80;;
23179;SDS011;11758;45.756;11.432;2022-07-21T01:24:14;10.27;;;4.60;;
23179;SDS011;11758;45.756;11.432;2022-07-21T01:26:44;5.82;;;4.88;;
23179;SDS011;11758;45.756;11.432;2022-07-21T01:29:11;5.20;;;4.70;;
23179;SDS011;11758;45.756;11.432;2022-07-21T01:31:38;6.43;;;4.78;;
23179;SDS011;11758;45.756;11.432;2022-07-21T01:34:04;6.22;;;4.60;;
23179;SDS011;11758;45.756;11.432;2022-07-21T01:36:30;5.55;;;4.75;;
23179;SDS011;11758;45.756;11.432;2022-07-21T01:38:56;5.60;;;4.47;;
23179;SDS011;11758;45.756;11.432;2022-07-21T01:41:42;7.38;;;4.50;;
23179;SDS011;11758;45.756;11.432;2022-07-21T01:44:09;5.53;;;5.10;;
23179;SDS011;11758;45.756;11.432;2022-07-21T01:46:36;14.02;;;5.07;;
23179;SDS011;11758;45.756;11.432;2022-07-21T01:49:03;9.90;;;4.50;;
23179;SDS011;11758;45.756;11.432;2022-07-21T01:51:29;7.00;;;4.60;;
23179;SDS011;11758;45.756;11.432;2022-07-21T01:53:55;8.75;;;4.97;;
23179;SDS011;11758;45.756;11.432;2022-07-21T01:56:22;10.60;;;4.40;;
23179;SDS011;11758;45.756;11.432;2022-07-21T01:58:49;6.68;;;5.15;;
23179;SDS011;11758;45.756;11.432;2022-07-21T02:01:16;4.78;;;4.32;;
23179;SDS011;11758;45.756;11.432;2022-07-21T02:03:43;5.05;;;4.57;;
23179;SDS011;11758;45.756;11.432;2022-07-21T02:06:09;6.32;;;4.80;;
23179;SDS011;11758;45.756;11.432;2022-07-21T02:08:36;5.60;;;4.75;;
23179;SDS011;11758;45.756;11.432;2022-07-21T02:11:02;7.30;;;4.97;;
23179;SDS011;11758;45.756;11.432;2022-07-21T02:13:29;10.60;;;4.78;;
23179;SDS011;11758;45.756;11.432;2022-07-21T02:15:55;7.65;;;5.05;;
23179;SDS011;11758;45.756;11.432;2022-07-21T02:18:21;5.18;;;4.70;;
23179;SDS011;11758;45.756;11.432;2022-07-21T02:20:47;8.82;;;4.85;;
23179;SDS011;11758;45.756;11.432;2022-07-21T02:23:15;6.40;;;4.78;;
23179;SDS011;11758;45.756;11.432;2022-07-21T02:25:41;6.30;;;4.80;;
23179;SDS011;11758;45.756;11.432;2022-07-21T02:28:07;7.68;;;5.13;;
23179;SDS011;11758;45.756;11.432;2022-07-21T02:30:33;6.78;;;5.32;;
23179;SDS011;11758;45.756;11.432;2022-07-21T02:33:00;5.50;;;4.82;;
23179;SDS011;11758;45.756;11.432;2022-07-21T02:35:26;5.53;;;4.90;;
23179;SDS011;11758;45.756;11.432;2022-07-21T02:37:52;5.38;;;4.78;;
23179;SDS011;11758;45.756;11.432;2022-07-21T02:40:18;8.77;;;5.00;;
23179;SDS011;11758;45.756;11.432;2022-07-21T02:42:44;6.72;;;4.95;;
23179;SDS011;11758;45.756;11.432;2022-07-21T02:45:10;9.50;;;4.85;;
23179;SDS011;11758;45.756;11.432;2022-07-21T02:50:15;7.88;;;4.88;;
23179;SDS011;11758;45.756;11.432;2022-07-21T02:52:41;4.85;;;4.45;;
23179;SDS011;11758;45.756;11.432;2022-07-21T02:55:07;5.20;;;4.78;;
23179;SDS011;11758;45.756;11.432;2022-07-21T02:57:34;5.32;;;4.93;;
23179;SDS011;11758;45.756;11.432;2022-07-21T03:00:00;7.97;;;5.03;;
23179;SDS011;11758;45.756;11.432;2022-07-21T03:02:26;5.72;;;4.90;;
23179;SDS011;11758;45.756;11.432;2022-07-21T03:04:52;6.20;;;4.80;;
23179;SDS011;11758;45.756;11.432;2022-07-21T03:07:18;6.47;;;5.10;;
23179;SDS011;11758;45.756;11.432;2022-07-21T03:09:44;7.47;;;4.93;;
23179;SDS011;11758;45.756;11.432;2022-07-21T03:12:10;5.10;;;4.68;;
23179;SDS011;11758;45.756;11.432;2022-07-21T03:14:37;8.60;;;4.63;;
23179;SDS011;11758;45.756;11.432;2022-07-21T03:17:03;8.65;;;4.97;;
23179;SDS011;11758;45.756;11.432;2022-07-21T03:19:29;6.47;;;4.93;;
23179;SDS011;11758;45.756;11.432;2022-07-21T03:21:55;8.25;;;4.80;;
23179;SDS011;11758;45.756;11.432;2022-07-21T03:24:21;6.57;;;5.35;;
23179;SDS011;11758;45.756;11.432;2022-07-21T03:26:48;9.30;;;5.07;;
23179;SDS011;11758;45.756;11.432;2022-07-21T03:29:14;8.05;;;5.05;;
23179;SDS011;11758;45.756;11.432;2022-07-21T03:31:40;9.10;;;5.25;;
23179;SDS011;11758;45.756;11.432;2022-07-21T03:34:06;8.70;;;4.95;;
23179;SDS011;11758;45.756;11.432;2022-07-21T03:36:32;9.25;;;4.70;;
23179;SDS011;11758;45.756;11.432;2022-07-21T03:38:58;10.00;;;4.80;;
23179;SDS011;11758;45.756;11.432;2022-07-21T03:41:24;7.25;;;5.10;;
23179;SDS011;11758;45.756;11.432;2022-07-21T03:43:50;6.05;;;4.70;;
23179;SDS011;11758;45.756;11.432;2022-07-21T03:46:16;7.00;;;4.88;;
23179;SDS011;11758;45.756;11.432;2022-07-21T03:48:42;6.10;;;5.05;;
23179;SDS011;11758;45.756;11.432;2022-07-21T03:51:08;8.75;;;5.07;;
23179;SDS011;11758;45.756;11.432;2022-07-21T03:53:35;5.57;;;5.07;;
23179;SDS011;11758;45.756;11.432;2022-07-21T03:56:01;7.32;;;4.57;;
23179;SDS011;11758;45.756;11.432;2022-07-21T03:58:27;5.43;;;5.03;;
23179;SDS011;11758;45.756;11.432;2022-07-21T04:00:53;7.05;;;5.05;;
23179;SDS011;11758;45.756;11.432;2022-07-21T04:03:19;6.70;;;5.18;;
23179;SDS011;11758;45.756;11.432;2022-07-21T04:05:45;8.55;;;5.07;;
23179;SDS011;11758;45.756;11.432;2022-07-21T04:08:11;10.25;;;5.30;;
23179;SDS011;11758;45.756;11.432;2022-07-21T04:10:39;5.78;;;5.20;;
23179;SDS011;11758;45.756;11.432;2022-07-21T04:13:06;8.18;;;5.47;;
23179;SDS011;11758;45.756;11.432;2022-07-21T04:15:33;8.35;;;5.30;;
23179;SDS011;11758;45.756;11.432;2022-07-21T04:17:59;9.30;;;5.15;;
23179;SDS011;11758;45.756;11.432;2022-07-21T04:20:25;7.03;;;5.00;;
23179;SDS011;11758;45.756;11.432;2022-07-21T04:22:52;8.00;;;4.80;;
23179;SDS011;11758;45.756;11.432;2022-07-21T04:25:18;8.35;;;5.07;;
23179;SDS011;11758;45.756;11.432;2022-07-21T04:27:45;9.52;;;5.60;;
23179;SDS011;11758;45.756;11.432;2022-07-21T04:30:12;5.78;;;5.07;;
23179;SDS011;11758;45.756;11.432;2022-07-21T04:32:39;8.98;;;4.95;;
23179;SDS011;11758;45.756;11.432;2022-07-21T04:35:05;10.27;;;5.45;;
23179;SDS011;11758;45.756;11.432;2022-07-21T04:37:32;9.35;;;5.30;;
23179;SDS011;11758;45.756;11.432;2022-07-21T04:39:58;6.00;;;5.13;;
23179;SDS011;11758;45.756;11.432;2022-07-21T04:42:25;10.00;;;5.38;;
23179;SDS011;11758;45.756;11.432;2022-07-21T04:44:51;10.02;;;5.50;;
23179;SDS011;11758;45.756;11.432;2022-07-21T04:47:17;11.77;;;5.97;;
23179;SDS011;11758;45.756;11.432;2022-07-21T04:49:44;5.78;;;5.28;;
23179;SDS011;11758;45.756;11.432;2022-07-21T04:52:10;7.03;;;5.22;;
23179;SDS011;11758;45.756;11.432;2022-07-21T04:54:36;10.18;;;5.70;;
23179;SDS011;11758;45.756;11.432;2022-07-21T04:57:02;14.73;;;5.70;;
23179;SDS011;11758;45.756;11.432;2022-07-21T04:59:30;5.65;;;5.10;;
23179;SDS011;11758;45.756;11.432;2022-07-21T05:01:57;7.07;;;5.63;;
23179;SDS011;11758;45.756;11.432;2022-07-21T05:04:23;15.48;;;6.15;;
23179;SDS011;11758;45.756;11.432;2022-07-21T05:06:49;13.98;;;7.00;;
23179;SDS011;11758;45.756;11.432;2022-07-21T05:09:15;11.38;;;7.45;;
23179;SDS011;11758;45.756;11.432;2022-07-21T05:11:41;10.10;;;7.20;;
23179;SDS011;11758;45.756;11.432;2022-07-21T05:14:07;17.05;;;6.97;;
23179;SDS011;11758;45.756;11.432;2022-07-21T05:16:34;18.20;;;8.00;;
23179;SDS011;11758;45.756;11.432;2022-07-21T05:19:00;15.90;;;8.35;;
23179;SDS011;11758;45.756;11.432;2022-07-21T05:21:26;15.20;;;8.57;;
23179;SDS011;11758;45.756;11.432;2022-07-21T05:23:52;14.80;;;8.48;;
23179;SDS011;11758;45.756;11.432;2022-07-21T05:26:18;11.18;;;7.00;;
23179;SDS011;11758;45.756;11.432;2022-07-21T05:28:44;13.43;;;7.32;;
23179;SDS011;11758;45.756;11.432;2022-07-21T05:31:10;7.78;;;6.53;;
23179;SDS011;11758;45.756;11.432;2022-07-21T05:33:36;9.95;;;6.47;;
23179;SDS011;11758;45.756;11.432;2022-07-21T05:36:03;12.40;;;6.68;;
23179;SDS011;11758;45.756;11.432;2022-07-21T05:38:29;11.65;;;6.18;;
23179;SDS011;11758;45.756;11.432;2022-07-21T05:40:56;7.85;;;5.90;;
23179;SDS011;11758;45.756;11.432;2022-07-21T05:43:25;11.35;;;6.00;;
23179;SDS011;11758;45.756;11.432;2022-07-21T05:45:51;7.63;;;6.38;;
23179;SDS011;11758;45.756;11.432;2022-07-21T05:48:17;10.07;;;6.13;;
23179;SDS011;11758;45.756;11.432;2022-07-21T05:50:43;8.88;;;6.75;;
23179;SDS011;11758;45.756;11.432;2022-07-21T05:53:09;18.30;;;6.93;;
23179;SDS011;11758;45.756;11.432;2022-07-21T05:55:35;13.57;;;6.75;;
23179;SDS011;11758;45.756;11.432;2022-07-21T05:58:01;9.82;;;6.93;;
23179;SDS011;11758;45.756;11.432;2022-07-21T06:00:28;12.45;;;7.07;;
23179;SDS011;11758;45.756;11.432;2022-07-21T06:02:54;19.02;;;6.75;;
23179;SDS011;11758;45.756;11.432;2022-07-21T06:05:20;39.28;;;7.35;;
23179;SDS011;11758;45.756;11.432;2022-07-21T06:07:46;18.83;;;6.88;;
23179;SDS011;11758;45.756;11.432;2022-07-21T06:10:13;6.95;;;6.25;;
23179;SDS011;11758;45.756;11.432;2022-07-21T06:12:39;11.20;;;6.10;;
23179;SDS011;11758;45.756;11.432;2022-07-21T06:15:06;6.10;;;5.50;;
23179;SDS011;11758;45.756;11.432;2022-07-21T06:17:38;13.93;;;6.15;;
23179;SDS011;11758;45.756;11.432;2022-07-21T06:20:05;6.88;;;6.20;;
23179;SDS011;11758;45.756;11.432;2022-07-21T06:22:31;13.07;;;5.55;;
23179;SDS011;11758;45.756;11.432;2022-07-21T06:24:57;8.98;;;5.68;;
23179;SDS011;11758;45.756;11.432;2022-07-21T06:27:23;16.98;;;6.28;;
23179;SDS011;11758;45.756;11.432;2022-07-21T06:29:49;7.05;;;6.05;;
23179;SDS011;11758;45.756;11.432;2022-07-21T06:32:15;13.85;;;6.00;;
23179;SDS011;11758;45.756;11.432;2022-07-21T06:34:41;9.27;;;5.60;;
23179;SDS011;11758;45.756;11.432;2022-07-21T06:37:07;8.98;;;6.47;;
23179;SDS011;11758;45.756;11.432;2022-07-21T06:39:34;9.20;;;7.00;;
23179;SDS011;11758;45.756;11.432;2022-07-21T06:42:04;13.73;;;7.63;;
23179;SDS011;11758;45.756;11.432;2022-07-21T06:44:30;8.07;;;6.00;;
23179;SDS011;11758;45.756;11.432;2022-07-21T06:46:56;11.20;;;7.10;;
23179;SDS011;11758;45.756;11.432;2022-07-21T06:49:23;9.48;;;6.85;;
23179;SDS011;11758;45.756;11.432;2022-07-21T06:51:50;8.15;;;6.45;;
23179;SDS011;11758;45.756;11.432;2022-07-21T06:54:16;10.77;;;6.97;;
23179;SDS011;11758;45.756;11.432;2022-07-21T06:56:42;18.00;;;6.97;;
23179;SDS011;11758;45.756;11.432;2022-07-21T06:59:08;11.27;;;6.88;;
23179;SDS011;11758;45.756;11.432;2022-07-21T07:01:34;17.02;;;6.80;;
23179;SDS011;11758;45.756;11.432;2022-07-21T07:04:01;7.28;;;6.55;;
23179;SDS011;11758;45.756;11.432;2022-07-21T07:06:27;7.65;;;6.70;;
23179;SDS011;11758;45.756;11.432;2022-07-21T07:08:53;12.57;;;6.53;;
23179;SDS011;11758;45.756;11.432;2022-07-21T07:11:19;12.82;;;6.10;;
23179;SDS011;11758;45.756;11.432;2022-07-21T07:13:45;11.30;;;6.05;;
23179;SDS011;11758;45.756;11.432;2022-07-21T07:16:11;12.80;;;6.57;;
23179;SDS011;11758;45.756;11.432;2022-07-21T07:18:38;9.18;;;6.32;;
23179;SDS011;11758;45.756;11.432;2022-07-21T07:21:04;16.20;;;6.35;;
23179;SDS011;11758;45.756;11.432;2022-07-21T07:23:30;13.00;;;5.80;;
23179;SDS011;11758;45.756;11.432;2022-07-21T07:25:56;16.77;;;6.68;;
23179;SDS011;11758;45.756;11.432;2022-07-21T07:28:22;10.35;;;6.28;;
23179;SDS011;11758;45.756;11.432;2022-07-21T07:30:48;10.55;;;6.40;;
23179;SDS011;11758;45.756;11.432;2022-07-21T07:33:14;13.75;;;6.45;;
23179;SDS011;11758;45.756;11.432;2022-07-21T07:35:41;8.45;;;6.05;;
23179;SDS011;11758;45.756;11.432;2022-07-21T07:38:07;9.30;;;6.13;;
23179;SDS011;11758;45.756;11.432;2022-07-21T07:40:33;13.18;;;5.68;;
23179;SDS011;11758;45.756;11.432;2022-07-21T07:43:01;5.68;;;5.20;;
23179;SDS011;11758;45.756;11.432;2022-07-21T07:45:27;8.38;;;5.70;;
23179;SDS011;11758;45.756;11.432;2022-07-21T07:47:53;14.52;;;5.88;;
23179;SDS011;11758;45.756;11.432;2022-07-21T07:50:19;14.68;;;6.13;;
23179;SDS011;11758;45.756;11.432;2022-07-21T07:52:45;13.13;;;6.07;;
23179;SDS011;11758;45.756;11.432;2022-07-21T07:55:11;8.63;;;5.97;;
23179;SDS011;11758;45.756;11.432;2022-07-21T07:57:39;11.98;;;5.72;;
23179;SDS011;11758;45.756;11.432;2022-07-21T08:00:07;6.53;;;5.65;;
23179;SDS011;11758;45.756;11.432;2022-07-21T08:02:34;10.35;;;5.82;;
23179;SDS011;11758;45.756;11.432;2022-07-21T08:05:00;24.17;;;6.72;;
23179;SDS011;11758;45.756;11.432;2022-07-21T08:07:26;17.83;;;6.22;;
23179;SDS011;11758;45.756;11.432;2022-07-21T08:09:52;18.83;;;6.00;;
23179;SDS011;11758;45.756;11.432;2022-07-21T08:12:18;11.25;;;5.97;;
23179;SDS011;11758;45.756;11.432;2022-07-21T08:14:45;12.75;;;5.85;;
23179;SDS011;11758;45.756;11.432;2022-07-21T08:17:11;8.80;;;5.72;;
23179;SDS011;11758;45.756;11.432;2022-07-21T08:19:37;8.57;;;5.68;;
23179;SDS011;11758;45.756;11.432;2022-07-21T08:22:03;8.63;;;5.78;;
23179;SDS011;11758;45.756;11.432;2022-07-21T08:24:29;9.07;;;5.57;;
23179;SDS011;11758;45.756;11.432;2022-07-21T08:26:55;11.65;;;5.60;;
23179;SDS011;11758;45.756;11.432;2022-07-21T08:29:21;8.18;;;6.20;;
23179;SDS011;11758;45.756;11.432;2022-07-21T08:31:47;12.32;;;5.55;;
23179;SDS011;11758;45.756;11.432;2022-07-21T08:34:13;7.15;;;5.50;;
23179;SDS011;11758;45.756;11.432;2022-07-21T08:36:39;11.13;;;5.68;;
23179;SDS011;11758;45.756;11.432;2022-07-21T08:39:06;8.40;;;5.70;;
23179;SDS011;11758;45.756;11.432;2022-07-21T08:41:32;6.57;;;4.97;;
23179;SDS011;11758;45.756;11.432;2022-07-21T08:43:58;8.10;;;5.38;;
23179;SDS011;11758;45.756;11.432;2022-07-21T08:46:24;6.72;;;5.20;;
23179;SDS011;11758;45.756;11.432;2022-07-21T08:48:50;6.63;;;5.72;;
23179;SDS011;11758;45.756;11.432;2022-07-21T08:51:17;6.65;;;4.90;;
23179;SDS011;11758;45.756;11.432;2022-07-21T08:53:43;5.65;;;5.15;;
23179;SDS011;11758;45.756;11.432;2022-07-21T08:56:10;5.40;;;5.00;;
23179;SDS011;11758;45.756;11.432;2022-07-21T08:58:36;9.35;;;5.00;;
23179;SDS011;11758;45.756;11.432;2022-07-21T09:01:03;8.93;;;5.05;;
23179;SDS011;11758;45.756;11.432;2022-07-21T09:03:31;11.32;;;5.28;;
23179;SDS011;11758;45.756;11.432;2022-07-21T09:05:59;13.82;;;5.40;;
23179;SDS011;11758;45.756;11.432;2022-07-21T09:08:34;7.32;;;5.00;;
23179;SDS011;11758;45.756;11.432;2022-07-21T09:11:07;9.85;;;5.30;;
23179;SDS011;11758;45.756;11.432;2022-07-21T09:13:33;8.73;;;5.03;;
23179;SDS011;11758;45.756;11.432;2022-07-21T09:15:59;10.30;;;5.22;;
23179;SDS011;11758;45.756;11.432;2022-07-21T09:18:25;13.13;;;5.15;;
23179;SDS011;11758;45.756;11.432;2022-07-21T09:20:52;5.45;;;4.68;;
23179;SDS011;11758;45.756;11.432;2022-07-21T09:23:20;7.70;;;4.20;;
23179;SDS011;11758;45.756;11.432;2022-07-21T09:25:51;4.70;;;4.25;;
23179;SDS011;11758;45.756;11.432;2022-07-21T09:28:27;6.63;;;4.57;;
23179;SDS011;11758;45.756;11.432;2022-07-21T09:31:15;10.88;;;4.28;;
23179;SDS011;11758;45.756;11.432;2022-07-21T09:33:44;8.38;;;3.97;;
23179;SDS011;11758;45.756;11.432;2022-07-21T09:36:12;7.20;;;4.50;;
23179;SDS011;11758;45.756;11.432;2022-07-21T09:38:39;8.13;;;4.15;;
23179;SDS011;11758;45.756;11.432;2022-07-21T09:41:28;6.70;;;4.03;;
23179;SDS011;11758;45.756;11.432;2022-07-21T09:43:55;4.45;;;4.03;;
23179;SDS011;11758;45.756;11.432;2022-07-21T09:46:25;7.40;;;3.70;;
23179;SDS011;11758;45.756;11.432;2022-07-21T09:48:55;3.85;;;3.55;;
23179;SDS011;11758;45.756;11.432;2022-07-21T09:56:24;4.18;;;3.53;;
23179;SDS011;11758;45.756;11.432;2022-07-21T09:58:52;3.97;;;3.55;;
23179;SDS011;11758;45.756;11.432;2022-07-21T10:01:18;4.57;;;3.80;;
23179;SDS011;11758;45.756;11.432;2022-07-21T10:03:45;5.97;;;3.40;;
23179;SDS011;11758;45.756;11.432;2022-07-21T10:06:12;5.90;;;3.55;;
23179;SDS011;11758;45.756;11.432;2022-07-21T10:08:38;3.85;;;3.55;;
23179;SDS011;11758;45.756;11.432;2022-07-21T10:11:04;6.78;;;4.28;;
23179;SDS011;11758;45.756;11.432;2022-07-21T10:13:31;3.60;;;3.35;;
23179;SDS011;11758;45.756;11.432;2022-07-21T10:15:57;7.10;;;3.55;;
23179;SDS011;11758;45.756;11.432;2022-07-21T10:18:27;8.60;;;4.00;;
23179;SDS011;11758;45.756;11.432;2022-07-21T10:20:59;3.78;;;3.10;;
23179;SDS011;11758;45.756;11.432;2022-07-21T10:23:33;3.63;;;3.22;;
23179;SDS011;11758;45.756;11.432;2022-07-21T10:26:01;5.85;;;3.13;;
23179;SDS011;11758;45.756;11.432;2022-07-21T10:28:30;5.00;;;2.67;;
23179;SDS011;11758;45.756;11.432;2022-07-21T10:30:57;5.97;;;3.10;;
23179;SDS011;11758;45.756;11.432;2022-07-21T10:41:39;4.05;;;3.10;;
23179;SDS011;11758;45.756;11.432;2022-07-21T10:57:42;3.35;;;3.25;;
23179;SDS011;11758;45.756;11.432;2022-07-21T11:00:15;4.88;;;3.42;;
23179;SDS011;11758;45.756;11.432;2022-07-21T11:02:52;3.60;;;3.30;;
23179;SDS011;11758;45.756;11.432;2022-07-21T11:05:18;4.50;;;3.20;;
23179;SDS011;11758;45.756;11.432;2022-07-21T11:10:47;10.77;;;4.38;;
23179;SDS011;11758;45.756;11.432;2022-07-21T11:13:14;8.90;;;4.82;;
23179;SDS011;11758;45.756;11.432;2022-07-21T11:15:47;6.00;;;5.47;;
23179;SDS011;11758;45.756;11.432;2022-07-21T11:18:18;8.55;;;4.78;;
23179;SDS011;11758;45.756;11.432;2022-07-21T11:20:59;7.05;;;4.68;;
23179;SDS011;11758;45.756;11.432;2022-07-21T11:23:39;5.80;;;5.18;;
23179;SDS011;11758;45.756;11.432;2022-07-21T11:26:05;14.63;;;6.75;;
23179;SDS011;11758;45.756;11.432;2022-07-21T11:28:32;8.40;;;6.15;;
23179;SDS011;11758;45.756;11.432;2022-07-21T11:31:17;14.13;;;6.13;;
23179;SDS011;11758;45.756;11.432;2022-07-21T11:33:47;12.25;;;5.82;;
23179;SDS011;11758;45.756;11.432;2022-07-21T11:36:27;7.65;;;5.30;;
23179;SDS011;11758;45.756;11.432;2022-07-21T11:39:01;7.28;;;5.07;;
23179;SDS011;11758;45.756;11.432;2022-07-21T11:41:28;6.22;;;5.55;;
23179;SDS011;11758;45.756;11.432;2022-07-21T11:43:55;6.40;;;5.80;;
23179;SDS011;11758;45.756;11.432;2022-07-21T11:46:21;12.70;;;6.00;;
23179;SDS011;11758;45.756;11.432;2022-07-21T11:48:47;9.52;;;5.50;;
23179;SDS011;11758;45.756;11.432;2022-07-21T11:51:13;10.55;;;5.40;;
23179;SDS011;11758;45.756;11.432;2022-07-21T11:53:43;8.65;;;5.60;;
23179;SDS011;11758;45.756;11.432;2022-07-21T11:56:16;8.02;;;5.75;;
23179;SDS011;11758;45.756;11.432;2022-07-21T11:58:42;5.53;;;4.90;;
23179;SDS011;11758;45.756;11.432;2022-07-21T12:01:09;5.45;;;4.97;;
23179;SDS011;11758;45.756;11.432;2022-07-21T12:03:45;6.18;;;5.60;;
23179;SDS011;11758;45.756;11.432;2022-07-21T12:06:12;10.77;;;5.80;;
23179;SDS011;11758;45.756;11.432;2022-07-21T12:08:38;8.85;;;5.65;;
23179;SDS011;11758;45.756;11.432;2022-07-21T12:11:05;7.88;;;5.50;;
23179;SDS011;11758;45.756;11.432;2022-07-21T12:13:50;6.40;;;5.35;;
23179;SDS011;11758;45.756;11.432;2022-07-21T12:16:17;6.38;;;4.93;;
23179;SDS011;11758;45.756;11.432;2022-07-21T12:18:43;5.72;;;5.03;;
23179;SDS011;11758;45.756;11.432;2022-07-21T12:21:09;6.10;;;5.05;;
23179;SDS011;11758;45.756;11.432;2022-07-21T12:23:35;5.43;;;5.03;;
23179;SDS011;11758;45.756;11.432;2022-07-21T12:26:02;11.60;;;5.25;;
23179;SDS011;11758;45.756;11.432;2022-07-21T12:28:48;9.43;;;5.63;;
23179;SDS011;11758;45.756;11.432;2022-07-21T12:31:18;13.82;;;5.20;;
23179;SDS011;11758;45.756;11.432;2022-07-21T12:33:55;4.82;;;4.63;;
23179;SDS011;11758;45.756;11.432;2022-07-21T12:36:22;7.05;;;5.05;;
23179;SDS011;11758;45.756;11.432;2022-07-21T12:38:49;5.25;;;4.82;;
23179;SDS011;11758;45.756;11.432;2022-07-21T12:41:19;8.50;;;5.47;;
23179;SDS011;11758;45.756;11.432;2022-07-21T12:43:56;14.93;;;5.55;;
23179;SDS011;11758;45.756;11.432;2022-07-21T12:46:27;8.10;;;5.10;;
23179;SDS011;11758;45.756;11.432;2022-07-21T12:49:01;8.40;;;5.10;;
23179;SDS011;11758;45.756;11.432;2022-07-21T12:51:28;5.72;;;4.80;;
23179;SDS011;11758;45.756;11.432;2022-07-21T12:53:54;7.32;;;4.95;;
23179;SDS011;11758;45.756;11.432;2022-07-21T12:56:21;5.97;;;5.28;;
23179;SDS011;11758;45.756;11.432;2022-07-21T12:58:48;11.00;;;5.40;;
23179;SDS011;11758;45.756;11.432;2022-07-21T13:01:15;5.07;;;4.68;;
23179;SDS011;11758;45.756;11.432;2022-07-21T13:03:42;5.55;;;4.82;;
23179;SDS011;11758;45.756;11.432;2022-07-21T13:06:08;5.38;;;4.97;;
23179;SDS011;11758;45.756;11.432;2022-07-21T13:08:35;6.20;;;5.03;;
23179;SDS011;11758;45.756;11.432;2022-07-21T13:11:02;6.38;;;5.47;;
23179;SDS011;11758;45.756;11.432;2022-07-21T13:13:30;10.57;;;4.60;;
23179;SDS011;11758;45.756;11.432;2022-07-21T13:15:57;5.35;;;4.90;;
23179;SDS011;11758;45.756;11.432;2022-07-21T13:18:25;7.10;;;5.13;;
23179;SDS011;11758;45.756;11.432;2022-07-21T13:20:57;8.48;;;4.97;;
23179;SDS011;11758;45.756;11.432;2022-07-21T13:23:23;6.90;;;5.22;;
23179;SDS011;11758;45.756;11.432;2022-07-21T13:25:49;5.15;;;4.75;;
23179;SDS011;11758;45.756;11.432;2022-07-21T13:28:16;6.65;;;5.13;;
23179;SDS011;11758;45.756;11.432;2022-07-21T13:30:42;7.70;;;4.78;;
23179;SDS011;11758;45.756;11.432;2022-07-21T13:33:08;8.68;;;5.35;;
23179;SDS011;11758;45.756;11.432;2022-07-21T13:35:34;10.05;;;5.55;;
23179;SDS011;11758;45.756;11.432;2022-07-21T13:38:00;5.68;;;5.25;;
23179;SDS011;11758;45.756;11.432;2022-07-21T13:40:27;8.77;;;5.50;;
23179;SDS011;11758;45.756;11.432;2022-07-21T13:42:53;6.15;;;5.30;;
23179;SDS011;11758;45.756;11.432;2022-07-21T13:45:20;5.53;;;5.03;;
23179;SDS011;11758;45.756;11.432;2022-07-21T13:47:46;8.50;;;4.78;;
23179;SDS011;11758;45.756;11.432;2022-07-21T13:50:12;11.75;;;5.20;;
23179;SDS011;11758;45.756;11.432;2022-07-21T13:52:38;11.40;;;5.00;;
23179;SDS011;11758;45.756;11.432;2022-07-21T13:55:06;9.80;;;5.05;;
23179;SDS011;11758;45.756;11.432;2022-07-21T13:57:32;5.32;;;4.85;;
23179;SDS011;11758;45.756;11.432;2022-07-21T13:59:58;8.98;;;5.70;;
23179;SDS011;11758;45.756;11.432;2022-07-21T14:02:24;9.57;;;5.50;;
23179;SDS011;11758;45.756;11.432;2022-07-21T14:04:51;8.68;;;5.65;;
23179;SDS011;11758;45.756;11.432;2022-07-21T14:07:17;8.90;;;5.45;;
23179;SDS011;11758;45.756;11.432;2022-07-21T14:09:43;8.40;;;5.32;;
23179;SDS011;11758;45.756;11.432;2022-07-21T14:12:09;7.45;;;5.25;;
23179;SDS011;11758;45.756;11.432;2022-07-21T14:14:36;5.57;;;5.15;;
23179;SDS011;11758;45.756;11.432;2022-07-21T14:17:02;5.75;;;5.20;;
23179;SDS011;11758;45.756;11.432;2022-07-21T14:19:29;9.85;;;5.07;;
23179;SDS011;11758;45.756;11.432;2022-07-21T14:21:55;11.63;;;5.45;;
23179;SDS011;11758;45.756;11.432;2022-07-21T14:24:21;9.65;;;5.38;;
23179;SDS011;11758;45.756;11.432;2022-07-21T14:27:06;7.25;;;5.13;;
23179;SDS011;11758;45.756;11.432;2022-07-21T14:29:32;7.20;;;5.30;;
23179;SDS011;11758;45.756;11.432;2022-07-21T14:31:58;6.75;;;5.10;;
23179;SDS011;11758;45.756;11.432;2022-07-21T14:34:24;6.60;;;5.47;;
23179;SDS011;11758;45.756;11.432;2022-07-21T14:36:50;6.55;;;5.50;;
23179;SDS011;11758;45.756;11.432;2022-07-21T14:39:17;12.93;;;5.70;;
23179;SDS011;11758;45.756;11.432;2022-07-21T14:41:43;6.13;;;5.50;;
23179;SDS011;11758;45.756;11.432;2022-07-21T14:44:09;7.93;;;5.50;;
23179;SDS011;11758;45.756;11.432;2022-07-21T14:46:36;12.15;;;5.78;;
23179;SDS011;11758;45.756;11.432;2022-07-21T14:49:02;7.65;;;5.35;;
23179;SDS011;11758;45.756;11.432;2022-07-21T14:51:29;53.78;;;7.00;;
23179;SDS011;11758;45.756;11.432;2022-07-21T14:53:55;6.22;;;5.65;;
23179;SDS011;11758;45.756;11.432;2022-07-21T14:56:21;7.38;;;6.22;;
23179;SDS011;11758;45.756;11.432;2022-07-21T14:58:47;9.30;;;5.35;;
23179;SDS011;11758;45.756;11.432;2022-07-21T15:01:13;5.93;;;5.45;;
23179;SDS011;11758;45.756;11.432;2022-07-21T15:03:39;9.88;;;6.13;;